sensor_id;sensor_type;location;lat;lon;timestamp;pressure;altitude;pressure_sealevel;temperature;humidity
46464;BME280;32161;48.148;-1.554;2023-03-21T00:01:07;101013.19;;;9.77;92.23
46464;BME280;32161;48.148;-1.554;2023-03-21T00:03:38;101007.97;;;9.76;91.81
46464;BME280;32161;48.148;-1.554;2023-03-21T00:06:08;101002.28;;;9.84;91.93
46464;BME280;32161;48.148;-1.554;2023-03-21T00:08:38;100990.81;;;9.82;91.65
46464;BME280;32161;48.148;-1.554;2023-03-21T00:11:08;100990.97;;;9.87;91.86
46464;BME280;32161;48.148;-1.554;2023-03-21T00:13:36;100992.34;;;9.71;92.36
46464;BME280;32161;48.148;-1.554;2023-03-21T00:16:11;100981.88;;;9.75;92.44
46464;BME280;32161;48.148;-1.554;2023-03-21T00:18:41;100975.38;;;9.76;92.58
46464;BME280;32161;48.148;-1.554;2023-03-21T00:21:13;100976.44;;;9.75;92.54
46464;BME280;32161;48.148;-1.554;2023-03-21T00:23:42;100969.94;;;9.76;92.06
46464;BME280;32161;48.148;-1.554;2023-03-21T00:26:12;100965.44;;;9.95;91.90
46464;BME280;32161;48.148;-1.554;2023-03-21T00:28:41;100951.81;;;9.76;92.66
46464;BME280;32161;48.148;-1.554;2023-03-21T00:31:10;100960.78;;;9.77;93.16
46464;BME280;32161;48.148;-1.554;2023-03-21T00:33:38;100964.28;;;9.84;92.58
46464;BME280;32161;48.148;-1.554;2023-03-21T00:36:08;100938.28;;;9.70;93.01
46464;BME280;32161;48.148;-1.554;2023-03-21T00:38:36;100947.59;;;9.81;92.55
46464;BME280;32161;48.148;-1.554;2023-03-21T00:41:06;100948.34;;;9.88;92.36
46464;BME280;32161;48.148;-1.554;2023-03-21T00:43:34;100951.84;;;9.95;92.49
46464;BME280;32161;48.148;-1.554;2023-03-21T00:46:03;100956.84;;;9.98;91.71
46464;BME280;32161;48.148;-1.554;2023-03-21T00:48:32;100951.81;;;9.76;92.52
46464;BME280;32161;48.148;-1.554;2023-03-21T00:50:59;100957.94;;;9.90;92.81
46464;BME280;32161;48.148;-1.554;2023-03-21T00:53:28;100960.59;;;9.72;93.25
46464;BME280;32161;48.148;-1.554;2023-03-21T00:55:56;100961.44;;;9.72;93.67
46464;BME280;32161;48.148;-1.554;2023-03-21T00:58:23;100954.97;;;9.73;93.83
46464;BME280;32161;48.148;-1.554;2023-03-21T01:00:51;100953.66;;;9.76;93.75
46464;BME280;32161;48.148;-1.554;2023-03-21T01:03:18;100949.50;;;9.80;93.88
46464;BME280;32161;48.148;-1.554;2023-03-21T01:05:48;100948.16;;;9.89;93.75
46464;BME280;32161;48.148;-1.554;2023-03-21T01:08:34;100957.53;;;9.93;92.93
46464;BME280;32161;48.148;-1.554;2023-03-21T01:11:07;100965.16;;;10.03;92.74
46464;BME280;32161;48.148;-1.554;2023-03-21T01:13:36;100960.47;;;9.92;93.21
46464;BME280;32161;48.148;-1.554;2023-03-21T01:16:06;100953.75;;;9.94;93.91
46464;BME280;32161;48.148;-1.554;2023-03-21T01:18:36;100957.94;;;9.90;94.06
46464;BME280;32161;48.148;-1.554;2023-03-21T01:21:09;100955.63;;;9.94;94.01
46464;BME280;32161;48.148;-1.554;2023-03-21T01:23:38;100951.66;;;9.96;94.36
46464;BME280;32161;48.148;-1.554;2023-03-21T01:26:07;100944.09;;;9.98;94.33
46464;BME280;32161;48.148;-1.554;2023-03-21T01:28:36;100947.88;;;9.97;94.24
46464;BME280;32161;48.148;-1.554;2023-03-21T01:31:05;100940.06;;;10.08;94.06
46464;BME280;32161;48.148;-1.554;2023-03-21T01:33:33;100922.75;;;10.02;93.89
46464;BME280;32161;48.148;-1.554;2023-03-21T01:36:02;100929.66;;;10.05;94.11
46464;BME280;32161;48.148;-1.554;2023-03-21T01:38:31;100943.56;;;10.15;93.02
46464;BME280;32161;48.148;-1.554;2023-03-21T01:41:00;100932.38;;;10.05;93.80
46464;BME280;32161;48.148;-1.554;2023-03-21T01:43:30;100932.84;;;9.95;94.54
46464;BME280;32161;48.148;-1.554;2023-03-21T01:46:27;100924.09;;;9.93;94.52
46464;BME280;32161;48.148;-1.554;2023-03-21T01:49:01;100905.19;;;10.05;94.51
46464;BME280;32161;48.148;-1.554;2023-03-21T01:51:29;100909.72;;;10.11;93.89
46464;BME280;32161;48.148;-1.554;2023-03-21T01:54:01;100901.88;;;10.02;93.63
46464;BME280;32161;48.148;-1.554;2023-03-21T01:56:33;100902.50;;;10.05;93.30
46464;BME280;32161;48.148;-1.554;2023-03-21T01:59:07;100907.81;;;9.93;94.22
46464;BME280;32161;48.148;-1.554;2023-03-21T02:01:35;100887.75;;;9.94;94.44
46464;BME280;32161;48.148;-1.554;2023-03-21T02:04:04;100889.59;;;10.00;94.58
46464;BME280;32161;48.148;-1.554;2023-03-21T02:06:42;100878.78;;;9.93;94.46
46464;BME280;32161;48.148;-1.554;2023-03-21T02:09:17;100882.31;;;9.94;94.70
46464;BME280;32161;48.148;-1.554;2023-03-21T02:11:46;100878.50;;;10.01;94.46
46464;BME280;32161;48.148;-1.554;2023-03-21T02:14:17;100877.94;;;9.93;94.75
46464;BME280;32161;48.148;-1.554;2023-03-21T02:16:56;100876.88;;;9.94;94.77
46464;BME280;32161;48.148;-1.554;2023-03-21T02:23:21;100865.19;;;9.93;95.13
46464;BME280;32161;48.148;-1.554;2023-03-21T02:28:56;100863.03;;;10.02;94.55
46464;BME280;32161;48.148;-1.554;2023-03-21T02:31:40;100854.34;;;9.93;95.36
46464;BME280;32161;48.148;-1.554;2023-03-21T02:34:52;100854.97;;;10.14;94.56
46464;BME280;32161;48.148;-1.554;2023-03-21T02:37:31;100852.22;;;9.95;95.21
46464;BME280;32161;48.148;-1.554;2023-03-21T02:40:09;100855.88;;;10.08;95.84
46464;BME280;32161;48.148;-1.554;2023-03-21T02:42:57;100852.34;;;10.07;95.80
46464;BME280;32161;48.148;-1.554;2023-03-21T02:45:32;100853.56;;;10.11;95.69
46464;BME280;32161;48.148;-1.554;2023-03-21T02:48:09;100845.03;;;10.08;96.06
46464;BME280;32161;48.148;-1.554;2023-03-21T02:50:44;100845.91;;;10.01;96.38
46464;BME280;32161;48.148;-1.554;2023-03-21T02:53:18;100837.78;;;10.20;96.11
46464;BME280;32161;48.148;-1.554;2023-03-21T02:55:47;100843.13;;;10.08;96.42
46464;BME280;32161;48.148;-1.554;2023-03-21T02:58:20;100844.19;;;10.07;96.91
46464;BME280;32161;48.148;-1.554;2023-03-21T03:00:49;100832.34;;;10.20;96.54
46464;BME280;32161;48.148;-1.554;2023-03-21T03:03:20;100827.13;;;10.18;96.54
46464;BME280;32161;48.148;-1.554;2023-03-21T03:05:51;100828.41;;;10.16;97.07
46464;BME280;32161;48.148;-1.554;2023-03-21T03:08:31;100816.50;;;10.17;97.12
46464;BME280;32161;48.148;-1.554;2023-03-21T03:11:15;100815.38;;;10.24;96.69
46464;BME280;32161;48.148;-1.554;2023-03-21T03:14:03;100831.91;;;10.23;96.71
46464;BME280;32161;48.148;-1.554;2023-03-21T03:16:41;100827.72;;;10.27;97.09
46464;BME280;32161;48.148;-1.554;2023-03-21T03:19:21;100823.09;;;10.27;97.48
46464;BME280;32161;48.148;-1.554;2023-03-21T03:21:58;100840.88;;;10.23;97.98
46464;BME280;32161;48.148;-1.554;2023-03-21T03:24:32;100830.94;;;10.36;98.10
46464;BME280;32161;48.148;-1.554;2023-03-21T03:27:07;100822.41;;;10.32;98.16
46464;BME280;32161;48.148;-1.554;2023-03-21T03:29:39;100838.94;;;10.31;99.12
46464;BME280;32161;48.148;-1.554;2023-03-21T03:32:10;100843.25;;;10.38;98.65
46464;BME280;32161;48.148;-1.554;2023-03-21T03:34:43;100835.16;;;10.32;99.61
46464;BME280;32161;48.148;-1.554;2023-03-21T03:37:18;100823.03;;;10.34;99.76
46464;BME280;32161;48.148;-1.554;2023-03-21T03:39:52;100818.41;;;10.35;100.00
46464;BME280;32161;48.148;-1.554;2023-03-21T03:42:24;100815.84;;;10.40;100.00
46464;BME280;32161;48.148;-1.554;2023-03-21T03:44:54;100802.03;;;10.41;100.00
46464;BME280;32161;48.148;-1.554;2023-03-21T03:47:26;100781.13;;;10.42;99.93
46464;BME280;32161;48.148;-1.554;2023-03-21T03:50:03;100788.28;;;10.36;100.00
46464;BME280;32161;48.148;-1.554;2023-03-21T03:52:38;100815.03;;;10.39;100.00
46464;BME280;32161;48.148;-1.554;2023-03-21T03:55:09;100823.56;;;10.43;100.00
46464;BME280;32161;48.148;-1.554;2023-03-21T03:57:39;100819.19;;;10.42;100.00
46464;BME280;32161;48.148;-1.554;2023-03-21T04:00:10;100836.13;;;10.56;100.00
46464;BME280;32161;48.148;-1.554;2023-03-21T04:02:38;100842.03;;;10.52;100.00
46464;BME280;32161;48.148;-1.554;2023-03-21T04:05:07;100839.16;;;10.47;100.00
46464;BME280;32161;48.148;-1.554;2023-03-21T04:07:35;100847.56;;;10.46;100.00
46464;BME280;32161;48.148;-1.554;2023-03-21T04:10:03;100858.50;;;10.58;100.00
46464;BME280;32161;48.148;-1.554;2023-03-21T04:12:32;100851.25;;;10.51;100.00
46464;BME280;32161;48.148;-1.554;2023-03-21T04:15:00;100850.03;;;10.47;100.00
46464;BME280;32161;48.148;-1.554;2023-03-21T04:17:27;100832.97;;;10.59;100.00
46464;BME280;32161;48.148;-1.554;2023-03-21T04:19:55;100821.66;;;10.62;100.00
46464;BME280;32161;48.148;-1.554;2023-03-21T04:22:23;100799.66;;;10.63;100.00
46464;BME280;32161;48.148;-1.554;2023-03-21T04:24:50;100821.53;;;10.68;100.00
46464;BME280;32161;48.148;-1.554;2023-03-21T04:27:18;100820.06;;;10.72;100.00
46464;BME280;32161;48.148;-1.554;2023-03-21T04:29:47;100820.56;;;10.81;100.00
46464;BME280;32161;48.148;-1.554;2023-03-21T04:32:15;100832.63;;;10.85;100.00
46464;BME280;32161;48.148;-1.554;2023-03-21T04:34:45;100820.59;;;10.93;100.00
46464;BME280;32161;48.148;-1.554;2023-03-21T04:37:15;100832.50;;;10.80;100.00
46464;BME280;32161;48.148;-1.554;2023-03-21T04:39:44;100826.81;;;10.82;100.00
46464;BME280;32161;48.148;-1.554;2023-03-21T04:42:12;100827.78;;;10.87;100.00
46464;BME280;32161;48.148;-1.554;2023-03-21T04:44:40;100826.50;;;10.90;100.00
46464;BME280;32161;48.148;-1.554;2023-03-21T04:47:09;100823.00;;;11.01;100.00
46464;BME280;32161;48.148;-1.554;2023-03-21T04:49:38;100817.19;;;10.97;100.00
46464;BME280;32161;48.148;-1.554;2023-03-21T04:52:05;100821.34;;;11.00;100.00
46464;BME280;32161;48.148;-1.554;2023-03-21T04:54:33;100820.81;;;10.91;100.00
46464;BME280;32161;48.148;-1.554;2023-03-21T04:57:02;100815.63;;;10.90;100.00
46464;BME280;32161;48.148;-1.554;2023-03-21T04:59:30;100824.69;;;10.84;100.00
46464;BME280;32161;48.148;-1.554;2023-03-21T05:01:57;100824.47;;;10.85;100.00
46464;BME280;32161;48.148;-1.554;2023-03-21T05:04:27;100823.72;;;10.78;100.00
46464;BME280;32161;48.148;-1.554;2023-03-21T05:06:55;100809.22;;;10.84;100.00
46464;BME280;32161;48.148;-1.554;2023-03-21T05:09:23;100814.88;;;10.83;100.00
46464;BME280;32161;48.148;-1.554;2023-03-21T05:11:51;100819.16;;;10.90;100.00
46464;BME280;32161;48.148;-1.554;2023-03-21T05:14:21;100812.19;;;10.94;100.00
46464;BME280;32161;48.148;-1.554;2023-03-21T05:16:50;100815.28;;;10.98;100.00
46464;BME280;32161;48.148;-1.554;2023-03-21T05:19:22;100820.63;;;11.05;100.00
46464;BME280;32161;48.148;-1.554;2023-03-21T05:21:52;100810.84;;;11.04;100.00
46464;BME280;32161;48.148;-1.554;2023-03-21T05:24:21;100812.56;;;10.98;100.00
46464;BME280;32161;48.148;-1.554;2023-03-21T05:26:48;100808.78;;;10.99;100.00
46464;BME280;32161;48.148;-1.554;2023-03-21T05:29:18;100812.19;;;10.94;100.00
46464;BME280;32161;48.148;-1.554;2023-03-21T05:31:46;100807.13;;;10.98;100.00
46464;BME280;32161;48.148;-1.554;2023-03-21T05:34:14;100801.47;;;10.99;100.00
46464;BME280;32161;48.148;-1.554;2023-03-21T05:36:42;100799.69;;;11.05;100.00
46464;BME280;32161;48.148;-1.554;2023-03-21T05:39:11;100791.63;;;10.98;100.00
46464;BME280;32161;48.148;-1.554;2023-03-21T05:41:38;100792.13;;;10.95;100.00
46464;BME280;32161;48.148;-1.554;2023-03-21T05:44:06;100792.00;;;11.02;100.00
46464;BME280;32161;48.148;-1.554;2023-03-21T05:46:34;100786.69;;;10.95;100.00
46464;BME280;32161;48.148;-1.554;2023-03-21T05:49:01;100796.75;;;11.07;100.00
46464;BME280;32161;48.148;-1.554;2023-03-21T05:51:32;100803.59;;;10.97;100.00
46464;BME280;32161;48.148;-1.554;2023-03-21T05:53:59;100798.59;;;10.94;100.00
46464;BME280;32161;48.148;-1.554;2023-03-21T05:56:28;100798.16;;;10.97;100.00
46464;BME280;32161;48.148;-1.554;2023-03-21T05:58:56;100793.19;;;11.06;100.00
46464;BME280;32161;48.148;-1.554;2023-03-21T06:01:23;100792.63;;;11.04;100.00
46464;BME280;32161;48.148;-1.554;2023-03-21T06:03:51;100780.28;;;11.02;100.00
46464;BME280;32161;48.148;-1.554;2023-03-21T06:06:18;100781.47;;;10.94;100.00
46464;BME280;32161;48.148;-1.554;2023-03-21T06:08:46;100782.16;;;10.89;100.00
46464;BME280;32161;48.148;-1.554;2023-03-21T06:11:22;100782.31;;;11.06;100.00
46464;BME280;32161;48.148;-1.554;2023-03-21T06:13:52;100794.88;;;11.07;100.00
46464;BME280;32161;48.148;-1.554;2023-03-21T06:16:19;100788.09;;;10.98;100.00
46464;BME280;32161;48.148;-1.554;2023-03-21T06:18:47;100794.25;;;11.05;100.00
46464;BME280;32161;48.148;-1.554;2023-03-21T06:21:14;100786.22;;;11.10;100.00
46464;BME280;32161;48.148;-1.554;2023-03-21T06:23:42;100793.22;;;11.18;100.00
46464;BME280;32161;48.148;-1.554;2023-03-21T06:26:09;100791.44;;;11.12;100.00
46464;BME280;32161;48.148;-1.554;2023-03-21T06:28:37;100792.19;;;11.19;100.00
46464;BME280;32161;48.148;-1.554;2023-03-21T06:31:06;100794.19;;;11.23;100.00
46464;BME280;32161;48.148;-1.554;2023-03-21T06:33:34;100794.66;;;11.20;100.00
46464;BME280;32161;48.148;-1.554;2023-03-21T06:36:02;100798.56;;;11.24;100.00
46464;BME280;32161;48.148;-1.554;2023-03-21T06:38:30;100798.84;;;11.35;100.00
46464;BME280;32161;48.148;-1.554;2023-03-21T06:40:57;100804.50;;;11.33;100.00
46464;BME280;32161;48.148;-1.554;2023-03-21T06:43:25;100808.38;;;11.25;100.00
46464;BME280;32161;48.148;-1.554;2023-03-21T06:45:53;100797.88;;;11.29;100.00
46464;BME280;32161;48.148;-1.554;2023-03-21T06:48:21;100803.66;;;11.21;100.00
46464;BME280;32161;48.148;-1.554;2023-03-21T06:50:50;100794.44;;;11.34;100.00
46464;BME280;32161;48.148;-1.554;2023-03-21T06:53:19;100789.00;;;11.34;100.00
46464;BME280;32161;48.148;-1.554;2023-03-21T06:55:49;100782.59;;;11.28;100.00
46464;BME280;32161;48.148;-1.554;2023-03-21T06:58:17;100785.09;;;11.41;100.00
46464;BME280;32161;48.148;-1.554;2023-03-21T07:00:44;100786.66;;;11.49;100.00
46464;BME280;32161;48.148;-1.554;2023-03-21T07:03:13;100781.56;;;11.53;100.00
46464;BME280;32161;48.148;-1.554;2023-03-21T07:05:42;100783.22;;;11.42;100.00
46464;BME280;32161;48.148;-1.554;2023-03-21T07:08:10;100784.41;;;11.34;100.00
46464;BME280;32161;48.148;-1.554;2023-03-21T07:10:40;100791.03;;;11.38;100.00
46464;BME280;32161;48.148;-1.554;2023-03-21T07:13:07;100805.13;;;11.47;100.00
46464;BME280;32161;48.148;-1.554;2023-03-21T07:15:36;100799.09;;;11.57;100.00
46464;BME280;32161;48.148;-1.554;2023-03-21T07:18:04;100800.78;;;11.69;100.00
46464;BME280;32161;48.148;-1.554;2023-03-21T07:20:32;100806.22;;;11.81;100.00
46464;BME280;32161;48.148;-1.554;2023-03-21T07:23:01;100805.59;;;11.67;100.00
46464;BME280;32161;48.148;-1.554;2023-03-21T07:25:29;100809.50;;;11.71;100.00
46464;BME280;32161;48.148;-1.554;2023-03-21T07:27:56;100794.50;;;11.81;100.00
46464;BME280;32161;48.148;-1.554;2023-03-21T07:30:24;100803.06;;;11.96;100.00
46464;BME280;32161;48.148;-1.554;2023-03-21T07:32:52;100807.16;;;11.98;100.00
46464;BME280;32161;48.148;-1.554;2023-03-21T07:35:20;100808.84;;;12.11;100.00
46464;BME280;32161;48.148;-1.554;2023-03-21T07:37:47;100812.59;;;12.22;100.00
46464;BME280;32161;48.148;-1.554;2023-03-21T07:40:17;100815.66;;;12.26;100.00
46464;BME280;32161;48.148;-1.554;2023-03-21T07:42:47;100813.41;;;12.34;100.00
46464;BME280;32161;48.148;-1.554;2023-03-21T07:45:15;100817.56;;;12.25;100.00
46464;BME280;32161;48.148;-1.554;2023-03-21T07:47:46;100825.16;;;12.23;100.00
46464;BME280;32161;48.148;-1.554;2023-03-21T07:52:42;100818.97;;;12.39;100.00
46464;BME280;32161;48.148;-1.554;2023-03-21T07:55:10;100824.78;;;12.43;100.00
46464;BME280;32161;48.148;-1.554;2023-03-21T07:57:39;100817.75;;;12.59;100.00
46464;BME280;32161;48.148;-1.554;2023-03-21T08:00:08;100824.34;;;12.63;100.00
46464;BME280;32161;48.148;-1.554;2023-03-21T08:02:37;100821.19;;;12.54;100.00
46464;BME280;32161;48.148;-1.554;2023-03-21T08:05:05;100828.91;;;12.57;100.00
46464;BME280;32161;48.148;-1.554;2023-03-21T08:07:33;100826.91;;;12.41;100.00
46464;BME280;32161;48.148;-1.554;2023-03-21T08:10:01;100839.44;;;12.54;100.00
46464;BME280;32161;48.148;-1.554;2023-03-21T08:12:28;100835.41;;;12.56;100.00
46464;BME280;32161;48.148;-1.554;2023-03-21T08:14:57;100841.91;;;12.67;100.00
46464;BME280;32161;48.148;-1.554;2023-03-21T08:17:25;100836.53;;;12.72;100.00
46464;BME280;32161;48.148;-1.554;2023-03-21T08:19:52;100842.28;;;12.87;100.00
46464;BME280;32161;48.148;-1.554;2023-03-21T08:22:20;100832.94;;;12.83;100.00
46464;BME280;32161;48.148;-1.554;2023-03-21T08:24:47;100836.88;;;12.76;100.00
46464;BME280;32161;48.148;-1.554;2023-03-21T08:27:15;100843.28;;;12.81;100.00
46464;BME280;32161;48.148;-1.554;2023-03-21T08:29:43;100845.47;;;12.96;100.00
46464;BME280;32161;48.148;-1.554;2023-03-21T08:32:12;100847.81;;;13.04;100.00
46464;BME280;32161;48.148;-1.554;2023-03-21T08:34:39;100856.09;;;13.09;100.00
46464;BME280;32161;48.148;-1.554;2023-03-21T08:37:07;100858.13;;;13.02;100.00
46464;BME280;32161;48.148;-1.554;2023-03-21T08:39:35;100854.94;;;13.22;100.00
46464;BME280;32161;48.148;-1.554;2023-03-21T08:42:04;100859.75;;;13.43;100.00
46464;BME280;32161;48.148;-1.554;2023-03-21T08:44:31;100857.50;;;13.24;100.00
46464;BME280;32161;48.148;-1.554;2023-03-21T08:46:59;100864.22;;;13.21;100.00
46464;BME280;32161;48.148;-1.554;2023-03-21T08:49:28;100853.72;;;13.41;100.00
46464;BME280;32161;48.148;-1.554;2023-03-21T08:51:56;100851.69;;;13.37;99.57
46464;BME280;32161;48.148;-1.554;2023-03-21T08:54:23;100845.00;;;13.28;100.00
46464;BME280;32161;48.148;-1.554;2023-03-21T08:56:51;100849.50;;;13.51;99.87
46464;BME280;32161;48.148;-1.554;2023-03-21T08:59:19;100841.81;;;13.64;96.06
46464;BME280;32161;48.148;-1.554;2023-03-21T09:01:46;100835.00;;;13.67;95.33
46464;BME280;32161;48.148;-1.554;2023-03-21T09:04:14;100839.31;;;13.63;93.59
46464;BME280;32161;48.148;-1.554;2023-03-21T09:06:45;100836.66;;;13.68;94.08
46464;BME280;32161;48.148;-1.554;2023-03-21T09:09:13;100835.25;;;13.82;92.87
46464;BME280;32161;48.148;-1.554;2023-03-21T09:11:41;100837.50;;;13.85;93.32
46464;BME280;32161;48.148;-1.554;2023-03-21T09:14:09;100833.91;;;14.02;92.82
46464;BME280;32161;48.148;-1.554;2023-03-21T09:16:37;100838.44;;;14.13;92.93
46464;BME280;32161;48.148;-1.554;2023-03-21T09:19:04;100838.13;;;14.09;94.02
46464;BME280;32161;48.148;-1.554;2023-03-21T09:21:34;100840.91;;;14.31;92.19
46464;BME280;32161;48.148;-1.554;2023-03-21T09:24:04;100843.91;;;14.30;91.60
46464;BME280;32161;48.148;-1.554;2023-03-21T09:26:32;100839.38;;;14.19;93.27
46464;BME280;32161;48.148;-1.554;2023-03-21T09:29:00;100834.31;;;14.71;89.68
46464;BME280;32161;48.148;-1.554;2023-03-21T09:31:29;100828.25;;;14.47;89.07
46464;BME280;32161;48.148;-1.554;2023-03-21T09:33:56;100832.47;;;14.55;88.72
46464;BME280;32161;48.148;-1.554;2023-03-21T09:36:25;100838.00;;;14.60;88.21
46464;BME280;32161;48.148;-1.554;2023-03-21T09:38:53;100834.47;;;14.43;88.68
46464;BME280;32161;48.148;-1.554;2023-03-21T09:41:38;100832.97;;;14.52;89.54
46464;BME280;32161;48.148;-1.554;2023-03-21T09:44:29;100848.84;;;14.50;87.00
46464;BME280;32161;48.148;-1.554;2023-03-21T09:47:05;100842.41;;;14.61;87.46
46464;BME280;32161;48.148;-1.554;2023-03-21T09:49:43;100853.25;;;14.34;86.62
46464;BME280;32161;48.148;-1.554;2023-03-21T09:52:20;100849.53;;;14.23;85.25
46464;BME280;32161;48.148;-1.554;2023-03-21T09:54:50;100841.06;;;14.25;85.37
46464;BME280;32161;48.148;-1.554;2023-03-21T09:57:29;100840.84;;;14.26;85.59
46464;BME280;32161;48.148;-1.554;2023-03-21T10:00:00;100853.84;;;14.19;84.35
46464;BME280;32161;48.148;-1.554;2023-03-21T10:02:39;100848.50;;;14.07;85.76
46464;BME280;32161;48.148;-1.554;2023-03-21T10:05:18;100848.78;;;14.28;85.77
46464;BME280;32161;48.148;-1.554;2023-03-21T10:07:53;100848.13;;;14.59;83.63
46464;BME280;32161;48.148;-1.554;2023-03-21T10:10:25;100857.44;;;14.41;84.10
46464;BME280;32161;48.148;-1.554;2023-03-21T10:12:56;100857.47;;;14.25;85.04
46464;BME280;32161;48.148;-1.554;2023-03-21T10:15:26;100855.13;;;14.33;85.57
46464;BME280;32161;48.148;-1.554;2023-03-21T10:17:59;100836.50;;;14.69;83.32
46464;BME280;32161;48.148;-1.554;2023-03-21T10:20:30;100850.28;;;14.79;83.99
46464;BME280;32161;48.148;-1.554;2023-03-21T10:22:59;100847.66;;;14.89;84.67
46464;BME280;32161;48.148;-1.554;2023-03-21T10:25:33;100845.13;;;15.10;85.32
46464;BME280;32161;48.148;-1.554;2023-03-21T10:28:05;100843.00;;;15.44;82.91
46464;BME280;32161;48.148;-1.554;2023-03-21T10:30:40;100842.09;;;15.33;84.99
46464;BME280;32161;48.148;-1.554;2023-03-21T10:33:15;100842.56;;;15.25;83.25
46464;BME280;32161;48.148;-1.554;2023-03-21T10:35:50;100837.66;;;15.27;83.75
46464;BME280;32161;48.148;-1.554;2023-03-21T10:38:21;100833.41;;;15.42;81.03
46464;BME280;32161;48.148;-1.554;2023-03-21T10:40:49;100835.75;;;15.60;78.04
46464;BME280;32161;48.148;-1.554;2023-03-21T10:43:34;100827.31;;;15.34;77.98
46464;BME280;32161;48.148;-1.554;2023-03-21T10:46:10;100828.50;;;15.17;77.66
46464;BME280;32161;48.148;-1.554;2023-03-21T10:48:41;100824.06;;;15.10;75.73
46464;BME280;32161;48.148;-1.554;2023-03-21T10:51:16;100827.19;;;14.92;75.99
46464;BME280;32161;48.148;-1.554;2023-03-21T10:53:51;100815.00;;;14.83;76.09
46464;BME280;32161;48.148;-1.554;2023-03-21T10:56:24;100825.25;;;14.93;76.70
46464;BME280;32161;48.148;-1.554;2023-03-21T10:58:55;100816.38;;;15.07;76.68
46464;BME280;32161;48.148;-1.554;2023-03-21T11:01:33;100818.28;;;15.34;72.66
46464;BME280;32161;48.148;-1.554;2023-03-21T11:04:08;100812.53;;;15.35;70.91
46464;BME280;32161;48.148;-1.554;2023-03-21T11:06:38;100810.31;;;15.32;69.52
46464;BME280;32161;48.148;-1.554;2023-03-21T11:09:13;100821.75;;;15.24;72.00
46464;BME280;32161;48.148;-1.554;2023-03-21T11:11:50;100812.50;;;15.03;71.92
46464;BME280;32161;48.148;-1.554;2023-03-21T11:14:32;100819.16;;;15.12;72.41
46464;BME280;32161;48.148;-1.554;2023-03-21T11:17:00;100814.19;;;15.36;72.47
46464;BME280;32161;48.148;-1.554;2023-03-21T11:19:31;100814.91;;;15.59;72.09
46464;BME280;32161;48.148;-1.554;2023-03-21T11:22:06;100819.25;;;15.50;74.14
46464;BME280;32161;48.148;-1.554;2023-03-21T11:24:35;100813.22;;;15.80;69.20
46464;BME280;32161;48.148;-1.554;2023-03-21T11:27:06;100826.75;;;15.65;70.63
46464;BME280;32161;48.148;-1.554;2023-03-21T11:29:37;100828.06;;;15.57;72.29
46464;BME280;32161;48.148;-1.554;2023-03-21T11:32:11;100827.69;;;15.75;71.48
46464;BME280;32161;48.148;-1.554;2023-03-21T11:34:46;100822.16;;;15.70;71.64
46464;BME280;32161;48.148;-1.554;2023-03-21T11:37:21;100819.34;;;15.97;72.12
46464;BME280;32161;48.148;-1.554;2023-03-21T11:39:56;100824.41;;;16.21;67.75
46464;BME280;32161;48.148;-1.554;2023-03-21T11:42:40;100821.44;;;16.22;65.92
46464;BME280;32161;48.148;-1.554;2023-03-21T11:45:15;100820.97;;;15.98;66.48
46464;BME280;32161;48.148;-1.554;2023-03-21T11:47:43;100812.75;;;15.93;67.09
46464;BME280;32161;48.148;-1.554;2023-03-21T11:50:19;100815.34;;;16.15;66.51
46464;BME280;32161;48.148;-1.554;2023-03-21T11:53:03;100814.22;;;16.11;66.99
46464;BME280;32161;48.148;-1.554;2023-03-21T11:55:46;100815.94;;;16.22;67.98
46464;BME280;32161;48.148;-1.554;2023-03-21T11:58:41;100821.69;;;16.21;69.20
46464;BME280;32161;48.148;-1.554;2023-03-21T12:01:20;100825.84;;;16.28;66.59
46464;BME280;32161;48.148;-1.554;2023-03-21T12:04:06;100826.41;;;16.35;66.77
46464;BME280;32161;48.148;-1.554;2023-03-21T12:06:43;100826.47;;;16.46;66.66
46464;BME280;32161;48.148;-1.554;2023-03-21T12:09:32;100831.06;;;16.30;66.90
46464;BME280;32161;48.148;-1.554;2023-03-21T12:12:21;100829.56;;;16.07;67.77
46464;BME280;32161;48.148;-1.554;2023-03-21T12:14:57;100824.59;;;16.04;69.56
46464;BME280;32161;48.148;-1.554;2023-03-21T12:17:39;100824.72;;;16.24;70.87
46464;BME280;32161;48.148;-1.554;2023-03-21T12:20:39;100817.88;;;16.27;70.10
46464;BME280;32161;48.148;-1.554;2023-03-21T12:23:24;100818.31;;;16.71;67.15
46464;BME280;32161;48.148;-1.554;2023-03-21T12:26:09;100806.09;;;16.99;65.88
46464;BME280;32161;48.148;-1.554;2023-03-21T12:28:49;100803.66;;;17.03;63.24
46464;BME280;32161;48.148;-1.554;2023-03-21T12:31:27;100808.16;;;16.67;63.80
46464;BME280;32161;48.148;-1.554;2023-03-21T12:34:09;100809.34;;;16.76;62.23
46464;BME280;32161;48.148;-1.554;2023-03-21T12:36:57;100800.28;;;16.91;62.90
46464;BME280;32161;48.148;-1.554;2023-03-21T12:39:31;100796.94;;;16.68;63.64
46464;BME280;32161;48.148;-1.554;2023-03-21T12:42:50;100791.47;;;16.73;64.58
46464;BME280;32161;48.148;-1.554;2023-03-21T12:45:26;100790.13;;;16.81;65.46
46464;BME280;32161;48.148;-1.554;2023-03-21T12:48:10;100792.91;;;17.06;62.33
46464;BME280;32161;48.148;-1.554;2023-03-21T12:50:42;100797.56;;;17.06;64.91
46464;BME280;32161;48.148;-1.554;2023-03-21T12:53:30;100792.66;;;17.13;62.52
46464;BME280;32161;48.148;-1.554;2023-03-21T12:56:04;100790.16;;;16.91;65.03
46464;BME280;32161;48.148;-1.554;2023-03-21T12:58:42;100786.91;;;17.20;63.14
46464;BME280;32161;48.148;-1.554;2023-03-21T13:01:14;100786.91;;;17.40;61.52
46464;BME280;32161;48.148;-1.554;2023-03-21T13:03:49;100792.94;;;17.47;61.23
46464;BME280;32161;48.148;-1.554;2023-03-21T13:06:22;100790.75;;;17.39;61.28
46464;BME280;32161;48.148;-1.554;2023-03-21T13:08:55;100791.03;;;17.32;62.55
46464;BME280;32161;48.148;-1.554;2023-03-21T13:11:28;100773.16;;;17.09;64.30